createdAt,value
2022-11-14T00:01:12.521Z,100024.50
2022-11-14T00:03:39.497Z,100030.03
2022-11-14T00:06:07.421Z,100029.22
2022-11-14T00:08:34.694Z,100027.94
2022-11-14T00:11:01.465Z,100033.91
2022-11-14T00:13:28.196Z,100028.81
2022-11-14T00:15:55.189Z,100021.66
2022-11-14T00:18:22.430Z,100025.19
2022-11-14T00:20:51.269Z,100029.91
2022-11-14T00:23:18.612Z,100026.72
2022-11-14T00:25:46.245Z,100023.06
2022-11-14T00:28:13.218Z,100024.56
2022-11-14T00:30:39.958Z,100024.56
2022-11-14T00:33:06.721Z,100019.81
2022-11-14T00:35:33.424Z,100030.03
2022-11-14T00:38:00.181Z,100033.59
2022-11-14T00:40:28.374Z,100016.88
2022-11-14T00:42:55.103Z,100029.53
2022-11-14T00:45:21.812Z,100018.75
2022-11-14T00:47:48.522Z,100020.66
2022-11-14T00:50:17.336Z,100021.47
2022-11-14T00:52:44.124Z,100022.22
2022-11-14T00:55:10.894Z,100017.38
2022-11-14T00:57:38.358Z,100011.75
2022-11-14T01:00:06.570Z,100006.53
2022-11-14T01:02:33.307Z,100014.00
2022-11-14T01:05:00.671Z,100014.00
2022-11-14T01:07:27.580Z,100006.84
2022-11-14T01:09:54.291Z,99990.13
2022-11-14T01:12:21.053Z,99990.09
2022-11-14T01:14:48.019Z,99988.91
2022-11-14T01:17:14.732Z,99983.75
2022-11-14T01:19:41.549Z,99977.47
2022-11-14T01:22:08.658Z,99975.91
2022-11-14T01:24:35.525Z,99987.00
2022-11-14T01:27:02.547Z,99995.31
2022-11-14T01:29:29.593Z,99989.31
2022-11-14T01:31:56.731Z,99979.84
2022-11-14T01:34:26.947Z,99986.56
2022-11-14T01:36:53.624Z,99978.28
2022-11-14T01:39:20.349Z,99968.84
2022-11-14T01:41:47.384Z,99975.16
2022-11-14T01:44:37.760Z,99960.84
2022-11-14T01:47:05.429Z,99960.00
2022-11-14T01:49:39.218Z,99961.97
2022-11-14T01:52:17.359Z,99957.66
2022-11-14T01:54:48.311Z,99952.84
2022-11-14T01:57:20.368Z,99948.53
2022-11-14T01:59:52.075Z,99947.69
2022-11-14T02:02:21.912Z,99952.44
2022-11-14T02:05:07.013Z,99952.84
2022-11-14T02:07:41.479Z,99937.81
2022-11-14T02:10:15.356Z,99933.00
2022-11-14T02:12:42.467Z,99927.78
2022-11-14T02:15:09.923Z,99921.03
2022-11-14T02:17:36.843Z,99916.31
2022-11-14T02:20:05.369Z,99915.50
2022-11-14T02:22:32.582Z,99921.44
2022-11-14T02:24:59.444Z,99907.56
2022-11-14T02:27:26.821Z,99917.09
2022-11-14T02:29:53.609Z,99917.09
2022-11-14T02:32:20.321Z,99926.59
2022-11-14T02:34:47.095Z,99920.69
2022-11-14T02:37:14.304Z,99924.63
2022-11-14T02:39:41.600Z,99907.63
2022-11-14T02:42:08.331Z,99898.13
2022-11-14T02:44:35.101Z,99904.47
2022-11-14T02:47:01.956Z,99902.09
2022-11-14T02:49:28.785Z,99913.50
2022-11-14T02:51:55.456Z,99921.81
2022-11-14T02:54:22.132Z,99912.72
2022-11-14T02:56:48.853Z,99913.19
2022-11-14T02:59:15.535Z,99903.66
2022-11-14T03:01:42.420Z,99886.19
2022-11-14T03:04:10.687Z,99887.31
2022-11-14T03:06:37.510Z,99886.88
2022-11-14T03:09:04.469Z,99878.94
2022-11-14T03:11:31.335Z,99875.00
2022-11-14T03:13:59.965Z,99865.06
2022-11-14T03:16:27.337Z,99867.44
2022-11-14T03:18:54.135Z,99858.34
2022-11-14T03:21:22.941Z,99854.38
2022-11-14T03:23:50.091Z,99855.59
2022-11-14T03:26:16.917Z,99857.16
2022-11-14T03:28:43.919Z,99865.16
2022-11-14T03:31:13.132Z,99866.81
2022-11-14T03:33:40.280Z,99860.03
2022-11-14T03:36:08.168Z,99868.69
2022-11-14T03:38:35.213Z,99859.19
2022-11-14T03:41:02.062Z,99853.66
2022-11-14T03:43:33.439Z,99850.47
2022-11-14T03:46:02.296Z,99852.81
2022-11-14T03:48:30.280Z,99847.28
2022-11-14T03:50:57.972Z,99850.47
2022-11-14T03:53:25.116Z,99842.13
2022-11-14T03:55:52.678Z,99840.94
2022-11-14T03:58:19.406Z,99846.88
2022-11-14T04:00:46.397Z,99849.25
2022-11-14T04:03:13.196Z,99844.16
2022-11-14T04:05:40.083Z,99838.63
2022-11-14T04:08:07.708Z,99846.50
2022-11-14T04:10:34.380Z,99840.53
2022-11-14T04:13:01.089Z,99823.47
2022-11-14T04:15:27.804Z,99826.25
2022-11-14T04:17:54.505Z,99829.81
2022-11-14T04:20:21.258Z,99834.22
2022-11-14T04:22:48.030Z,99831.88
2022-11-14T04:25:14.830Z,99834.72
2022-11-14T04:27:41.769Z,99829.97
2022-11-14T04:30:12.371Z,99824.41
2022-11-14T04:32:39.084Z,99830.28
2022-11-14T04:35:06.166Z,99829.06
2022-11-14T04:37:32.980Z,99827.47
2022-11-14T04:40:02.735Z,99825.09
2022-11-14T04:42:29.484Z,99833.00
2022-11-14T04:44:56.258Z,99831.84
2022-11-14T04:47:23.152Z,99843.31
2022-11-14T04:49:49.821Z,99838.94
2022-11-14T04:52:16.533Z,99836.91
2022-11-14T04:54:43.277Z,99833.69
2022-11-14T04:57:10.042Z,99822.56
2022-11-14T04:59:36.755Z,99822.16
2022-11-14T05:02:03.636Z,99819.28
2022-11-14T05:04:31.138Z,99814.19
2022-11-14T05:06:58.001Z,99822.88
2022-11-14T05:09:24.784Z,99810.56
2022-11-14T05:11:51.607Z,99814.50
2022-11-14T05:14:18.553Z,99806.94
2022-11-14T05:16:45.301Z,99805.75
2022-11-14T05:19:12.029Z,99804.56
2022-11-14T05:21:38.703Z,99810.97
2022-11-14T05:24:05.645Z,99808.22
2022-11-14T05:26:32.366Z,99815.31
2022-11-14T05:28:59.212Z,99812.88
2022-11-14T05:31:25.925Z,99821.59
2022-11-14T05:33:52.711Z,99812.84
2022-11-14T05:36:19.631Z,99812.47
2022-11-14T05:38:46.297Z,99809.69
2022-11-14T05:41:15.377Z,99808.47
2022-11-14T05:43:42.437Z,99795.31
2022-11-14T05:46:13.040Z,99791.34
2022-11-14T05:48:40.680Z,99797.63
2022-11-14T05:51:10.199Z,99797.63
2022-11-14T05:53:37.121Z,99791.28
2022-11-14T05:56:10.589Z,99781.75
2022-11-14T05:58:37.421Z,99785.66
2022-11-14T06:01:13.228Z,99780.94
2022-11-14T06:03:42.936Z,99786.09
2022-11-14T06:06:12.504Z,99771.44
2022-11-14T06:08:40.194Z,99765.91
2022-11-14T06:11:09.921Z,99766.66
2022-11-14T06:13:37.310Z,99755.50
2022-11-14T06:16:07.096Z,99756.66
2022-11-14T06:18:34.687Z,99752.69
2022-11-14T06:21:05.824Z,99747.94
2022-11-14T06:23:32.663Z,99738.81
2022-11-14T06:26:05.354Z,99732.13
2022-11-14T06:28:32.921Z,99735.69
2022-11-14T06:31:01.366Z,99729.34
2022-11-14T06:33:29.499Z,99731.69
2022-11-14T06:36:00.275Z,99728.50
2022-11-14T06:38:27.857Z,99729.25
2022-11-14T06:41:21.784Z,99733.19
2022-11-14T06:43:50.715Z,99733.25
2022-11-14T06:46:19.781Z,99749.13
2022-11-14T06:48:47.645Z,99747.13
2022-11-14T06:51:15.688Z,99745.88
2022-11-14T06:53:43.339Z,99754.19
2022-11-14T06:56:12.695Z,99753.75
2022-11-14T06:58:42.870Z,99758.50
2022-11-14T07:01:16.231Z,99760.41
2022-11-14T07:03:44.363Z,99761.97
2022-11-14T07:06:13.761Z,99770.28
2022-11-14T07:08:40.701Z,99782.09
2022-11-14T07:11:08.945Z,99782.84
2022-11-14T07:13:36.470Z,99787.59
2022-11-14T07:16:03.842Z,99795.09
2022-11-14T07:18:32.317Z,99795.84
2022-11-14T07:21:00.884Z,99804.09
2022-11-14T07:23:27.970Z,99814.38
2022-11-14T07:25:54.753Z,99814.38
2022-11-14T07:28:21.508Z,99813.94
2022-11-14T07:30:48.314Z,99804.06
2022-11-14T07:33:14.971Z,99817.91
2022-11-14T07:35:41.773Z,99809.13
2022-11-14T07:38:08.496Z,99817.44
2022-11-14T07:40:35.273Z,99824.59
2022-11-14T07:43:02.764Z,99829.72
2022-11-14T07:45:29.996Z,99835.59
2022-11-14T07:47:58.125Z,99832.41
2022-11-14T07:50:25.999Z,99818.22
2022-11-14T07:52:54.168Z,99826.06
2022-11-14T07:55:21.577Z,99816.59
2022-11-14T07:57:49.564Z,99815.88
2022-11-14T08:00:17.119Z,99799.59
2022-11-14T08:02:45.552Z,99810.31
2022-11-14T08:05:12.465Z,99797.63
2022-11-14T08:07:39.267Z,99801.22
2022-11-14T08:10:06.662Z,99810.31
2022-11-14T08:12:33.441Z,99809.59
2022-11-14T08:15:00.187Z,99807.97
2022-11-14T08:17:26.958Z,99802.03
2022-11-14T08:19:53.690Z,99804.78
2022-11-14T08:22:20.400Z,99800.41
2022-11-14T08:24:47.087Z,99792.09
2022-11-14T08:27:13.782Z,99797.22
2022-11-14T08:29:40.500Z,99795.69
2022-11-14T08:32:07.509Z,99794.13
2022-11-14T08:34:34.289Z,99785.81
2022-11-14T08:37:02.183Z,99785.09
2022-11-14T08:39:29.298Z,99766.91
2022-11-14T08:41:56.128Z,99785.94
2022-11-14T08:44:22.878Z,99784.38
2022-11-14T08:46:50.664Z,99774.91
2022-11-14T08:49:17.509Z,99777.28
2022-11-14T08:51:44.225Z,99770.19
2022-11-14T08:54:11.189Z,99769.44
2022-11-14T08:56:37.913Z,99776.63
2022-11-14T08:59:04.779Z,99763.19
2022-11-14T09:01:32.913Z,99771.63
2022-11-14T09:04:00.553Z,99770.50
2022-11-14T09:06:29.330Z,99772.94
2022-11-14T09:08:56.264Z,99763.91
2022-11-14T09:11:23.028Z,99758.06
2022-11-14T09:13:49.797Z,99762.06
2022-11-14T09:16:16.582Z,99766.06
2022-11-14T09:18:43.577Z,99764.06
2022-11-14T09:21:11.035Z,99756.19
2022-11-14T09:23:37.836Z,99751.06
2022-11-14T09:26:06.614Z,99753.84
2022-11-14T09:28:33.549Z,99743.97
2022-11-14T09:31:06.715Z,99751.91
2022-11-14T09:33:34.588Z,99751.91
2022-11-14T09:36:03.871Z,99751.91
2022-11-14T09:38:36.996Z,99755.84
2022-11-14T09:41:11.074Z,99744.78
2022-11-14T09:44:05.542Z,99743.16
2022-11-14T09:46:37.938Z,99743.16
2022-11-14T09:49:12.030Z,99752.69
2022-11-14T09:51:47.573Z,99750.66
2022-11-14T09:54:26.139Z,99754.97
2022-11-14T09:56:54.363Z,99752.56
2022-11-14T09:59:21.274Z,99761.28
2022-11-14T10:01:54.595Z,99764.44
2022-11-14T10:04:34.086Z,99758.56
2022-11-14T10:07:15.641Z,99764.94
2022-11-14T10:09:52.488Z,99765.34
2022-11-14T10:12:27.432Z,99759.06
2022-11-14T10:14:58.033Z,99764.59
2022-11-14T10:17:42.403Z,99765.44
2022-11-14T10:20:24.252Z,99766.31
2022-11-14T10:23:01.157Z,99768.34
2022-11-14T10:25:42.506Z,99762.47
2022-11-14T10:28:22.787Z,99766.41
2022-11-14T10:31:10.328Z,99769.16
2022-11-14T10:33:57.634Z,99771.19
2022-11-14T10:36:39.252Z,99767.25
2022-11-14T10:39:16.493Z,99771.59
2022-11-14T10:41:57.909Z,99768.06
2022-11-14T10:44:36.247Z,99768.84
2022-11-14T10:47:10.707Z,99759.34
2022-11-14T10:49:38.692Z,99768.88
2022-11-14T10:52:13.092Z,99770.53
2022-11-14T10:55:08.294Z,99768.19
2022-11-14T10:57:35.439Z,99767.38
2022-11-14T11:00:11.658Z,99766.19
2022-11-14T11:02:56.764Z,99762.66
2022-11-14T11:05:29.824Z,99752.78
2022-11-14T11:08:42.064Z,99749.66
2022-11-14T11:11:29.764Z,99752.44
2022-11-14T11:14:00.417Z,99749.25
2022-11-14T11:16:29.815Z,99750.06
2022-11-14T11:19:27.008Z,99745.31
2022-11-14T11:21:53.901Z,99744.53
2022-11-14T11:24:35.027Z,99731.78
2022-11-14T11:27:20.697Z,99735.31
2022-11-14T11:29:47.478Z,99734.13
2022-11-14T11:32:26.180Z,99723.47
2022-11-14T11:34:53.650Z,99721.88
2022-11-14T11:37:36.309Z,99717.53
2022-11-14T11:40:06.867Z,99715.22
2022-11-14T11:43:23.736Z,99716.47
2022-11-14T11:45:24.071Z,99716.47
2022-11-14T11:47:59.369Z,99718.00
2022-11-14T11:50:26.206Z,99716.72
2022-11-14T11:53:17.606Z,99710.34
2022-11-14T11:55:48.169Z,99711.09
2022-11-14T11:58:28.636Z,99707.88
2022-11-14T12:00:55.679Z,99704.69
2022-11-14T12:03:25.684Z,99702.28
2022-11-14T12:06:05.967Z,99702.75
2022-11-14T12:08:46.347Z,99698.41
2022-11-14T12:11:21.364Z,99701.28
2022-11-14T12:14:16.207Z,99696.19
2022-11-14T12:17:01.380Z,99689.91
2022-11-14T12:19:50.285Z,99676.91
2022-11-14T12:22:51.991Z,99679.00
2022-11-14T12:26:06.229Z,99684.69
2022-11-14T12:29:00.944Z,99680.81
2022-11-14T12:31:32.405Z,99682.03
2022-11-14T12:34:01.131Z,99663.88
2022-11-14T12:36:31.450Z,99663.53
2022-11-14T12:38:59.966Z,99660.84
2022-11-14T12:41:36.450Z,99658.53
2022-11-14T12:44:34.744Z,99658.13
2022-11-14T12:47:07.564Z,99650.13
2022-11-14T12:49:52.880Z,99648.09
2022-11-14T12:52:39.870Z,99643.66
2022-11-14T12:55:18.780Z,99633.31
2022-11-14T12:58:07.298Z,99639.69
2022-11-14T13:01:06.461Z,99626.97
2022-11-14T13:04:10.149Z,99633.69
2022-11-14T13:06:36.845Z,99620.59
2022-11-14T13:09:32.412Z,99614.25
2022-11-14T13:12:18.308Z,99617.81
2022-11-14T13:15:13.157Z,99608.69
2022-11-14T13:17:58.584Z,99612.31
2022-11-14T13:20:45.649Z,99617.09
2022-11-14T13:23:30.377Z,99598.09
2022-11-14T13:26:13.445Z,99595.31
2022-11-14T13:28:50.972Z,99603.28
2022-11-14T13:31:22.029Z,99594.56
2022-11-14T13:33:52.268Z,99586.69
2022-11-14T13:36:35.590Z,99588.00
2022-11-14T13:39:21.046Z,99579.69
2022-11-14T13:42:29.303Z,99578.94
2022-11-14T13:45:32.851Z,99576.19
2022-11-14T13:48:37.181Z,99584.56
2022-11-14T13:51:36.294Z,99583.00
2022-11-14T13:53:56.399Z,99565.50
2022-11-14T13:56:35.958Z,99572.66
2022-11-14T13:59:20.907Z,99559.94
2022-11-14T14:02:10.485Z,99555.16
2022-11-14T14:05:05.456Z,99556.31
2022-11-14T14:07:50.879Z,99549.56
2022-11-14T14:10:20.411Z,99551.13
2022-11-14T14:12:56.030Z,99540.78
2022-11-14T14:15:32.642Z,99545.94
2022-11-14T14:18:32.946Z,99539.16
2022-11-14T14:20:59.729Z,99529.59
2022-11-14T14:24:14.570Z,99519.22
2022-11-14T14:27:10.300Z,99511.19
2022-11-14T14:29:39.876Z,99508.78
2022-11-14T14:32:13.333Z,99507.94
2022-11-14T14:34:41.974Z,99514.25
2022-11-14T14:37:27.850Z,99510.22
2022-11-14T14:40:09.101Z,99515.66
2022-11-14T14:42:41.461Z,99518.78
2022-11-14T14:45:16.462Z,99498.06
2022-11-14T14:47:50.510Z,99503.53
2022-11-14T14:50:34.875Z,99491.59
2022-11-14T14:53:03.836Z,99494.66
2022-11-14T14:55:33.528Z,99489.84
2022-11-14T14:58:38.439Z,99485.75
2022-11-14T15:01:07.223Z,99482.94
2022-11-14T15:03:49.044Z,99483.28
2022-11-14T15:06:31.978Z,99477.69
2022-11-14T15:09:26.369Z,99468.13
2022-11-14T15:11:58.390Z,99470.84
2022-11-14T15:14:29.366Z,99470.38
2022-11-14T15:16:59.232Z,99462.44
2022-11-14T15:19:39.888Z,99449.31
2022-11-14T15:22:10.864Z,99452.03
2022-11-14T15:24:37.620Z,99444.91
2022-11-14T15:27:06.512Z,99444.13
2022-11-14T15:29:33.502Z,99436.94
2022-11-14T15:32:02.774Z,99426.19
2022-11-14T15:34:37.927Z,99425.38
2022-11-14T15:37:14.466Z,99409.13
2022-11-14T15:39:42.128Z,99400.34
2022-11-14T15:42:38.280Z,99411.38
2022-11-14T15:45:25.370Z,99403.81
2022-11-14T15:48:05.078Z,99389.91
2022-11-14T15:50:34.097Z,99391.09
2022-11-14T15:53:02.559Z,99385.53
2022-11-14T15:55:29.579Z,99386.63
2022-11-14T15:58:21.478Z,99378.31
2022-11-14T16:00:53.385Z,99370.72
2022-11-14T16:03:22.033Z,99369.50
2022-11-14T16:05:48.954Z,99366.69
2022-11-14T16:08:15.719Z,99371.41
2022-11-14T16:10:42.481Z,99359.06
2022-11-14T16:13:11.092Z,99358.59
2022-11-14T16:15:37.925Z,99351.06
2022-11-14T16:18:06.035Z,99348.25
2022-11-14T16:20:38.015Z,99352.13
2022-11-14T16:23:05.727Z,99338.66
2022-11-14T16:25:32.967Z,99328.72
2022-11-14T16:27:59.819Z,99348.00
2022-11-14T16:30:27.898Z,99337.31
2022-11-14T16:32:54.659Z,99335.31
2022-11-14T16:35:25.748Z,99334.09
2022-11-14T16:37:54.882Z,99335.22
2022-11-14T16:40:25.596Z,99315.41
2022-11-14T16:42:55.165Z,99321.66
2022-11-14T16:45:22.384Z,99301.09
2022-11-14T16:47:50.083Z,99307.38
2022-11-14T16:50:18.513Z,99303.03
2022-11-14T16:52:45.225Z,99305.00
2022-11-14T16:55:12.842Z,99296.28
2022-11-14T16:57:40.148Z,99296.25
2022-11-14T17:00:10.858Z,99300.16
2022-11-14T17:02:37.899Z,99299.38
2022-11-14T17:05:04.937Z,99300.56
2022-11-14T17:07:33.559Z,99293.00
2022-11-14T17:10:00.664Z,99290.59
2022-11-14T17:12:28.654Z,99285.06
2022-11-14T17:14:55.382Z,99289.03
2022-11-14T17:17:22.081Z,99278.72
2022-11-14T17:19:49.096Z,99287.41
2022-11-14T17:22:17.533Z,99281.09
2022-11-14T17:24:44.890Z,99277.13
2022-11-14T17:27:13.072Z,99273.13
2022-11-14T17:29:40.161Z,99270.75
2022-11-14T17:32:06.990Z,99266.06
2022-11-14T17:34:33.793Z,99246.31
2022-11-14T17:37:00.478Z,99243.13
2022-11-14T17:39:27.327Z,99241.09
2022-11-14T17:41:54.167Z,99224.13
2022-11-14T17:44:21.930Z,99226.09
2022-11-14T17:46:48.955Z,99225.28
2022-11-14T17:49:15.672Z,99221.72
2022-11-14T17:51:42.829Z,99220.56
2022-11-14T17:54:09.562Z,99221.72
2022-11-14T17:56:42.629Z,99213.06
2022-11-14T17:59:12.607Z,99205.94
2022-11-14T18:01:39.446Z,99193.31
2022-11-14T18:04:06.772Z,99178.31
2022-11-14T18:06:34.236Z,99183.44
2022-11-14T18:09:05.039Z,99181.81
2022-11-14T18:11:32.189Z,99170.00
2022-11-14T18:13:58.942Z,99159.72
2022-11-14T18:16:31.416Z,99149.88
2022-11-14T18:19:06.581Z,99142.41
2022-11-14T18:21:33.307Z,99131.75
2022-11-14T18:24:00.636Z,99125.47
2022-11-14T18:26:29.093Z,99122.31
2022-11-14T18:29:01.870Z,99118.78
2022-11-14T18:31:29.059Z,99095.53
2022-11-14T18:33:56.599Z,99103.38
2022-11-14T18:36:24.120Z,99085.25
2022-11-14T18:38:51.111Z,99077.75
2022-11-14T18:41:21.069Z,99070.31
2022-11-14T18:43:49.675Z,99058.47
2022-11-14T18:46:24.577Z,99069.56
2022-11-14T18:48:57.157Z,99069.63
2022-11-14T18:51:27.452Z,99057.81
2022-11-14T18:53:56.426Z,99052.28
2022-11-14T18:56:25.485Z,99057.47
2022-11-14T18:58:55.597Z,99050.03
2022-11-14T19:01:29.354Z,99046.09
2022-11-14T19:04:01.166Z,99063.53
2022-11-14T19:06:29.840Z,99050.09
2022-11-14T19:09:22.850Z,99038.28
2022-11-14T19:12:08.668Z,99036.72
2022-11-14T19:14:35.970Z,99028.09
2022-11-14T19:17:07.029Z,99018.28
2022-11-14T19:19:33.884Z,99010.81
2022-11-14T19:22:00.688Z,99001.00
2022-11-14T19:24:27.410Z,99000.63
2022-11-14T19:26:54.169Z,98991.19
2022-11-14T19:29:20.898Z,98994.38
2022-11-14T19:31:47.691Z,98999.53
2022-11-14T19:34:15.116Z,98974.66
2022-11-14T19:39:28.927Z,98964.00
2022-11-14T19:41:56.096Z,98947.03
2022-11-14T19:44:22.827Z,98934.75
2022-11-14T19:46:49.597Z,98940.69
2022-11-14T19:49:16.320Z,98937.94
2022-11-14T19:51:43.132Z,98900.78
2022-11-14T19:54:10.992Z,98907.13
2022-11-14T19:56:37.887Z,98903.59
2022-11-14T19:59:11.068Z,98901.22
2022-11-14T20:01:42.206Z,98893.31
2022-11-14T20:04:11.515Z,98886.59
2022-11-14T20:06:38.251Z,98868.81
2022-11-14T20:09:09.204Z,98866.41
2022-11-14T20:11:36.249Z,98858.91
2022-11-14T20:14:03.008Z,98842.69
2022-11-14T20:16:33.191Z,98840.31
2022-11-14T20:19:01.778Z,98811.03
2022-11-14T20:21:30.720Z,98824.09
2022-11-14T20:23:57.781Z,98817.38
2022-11-14T20:26:26.004Z,98804.72
2022-11-14T20:28:54.074Z,98803.50
2022-11-14T20:31:26.483Z,98792.06
2022-11-14T20:33:54.114Z,98795.22
2022-11-14T20:36:24.217Z,98780.19
2022-11-14T20:38:51.592Z,98790.88
2022-11-14T20:41:19.038Z,98784.94
2022-11-14T20:43:45.853Z,98775.81
2022-11-14T20:46:15.376Z,98785.72
2022-11-14T20:48:42.910Z,98788.88
2022-11-14T20:51:14.362Z,98772.25
2022-11-14T20:53:41.987Z,98767.50
2022-11-14T20:56:09.911Z,98780.19
2022-11-14T20:58:40.435Z,98767.91
2022-11-14T21:01:07.727Z,98764.34
2022-11-14T21:03:35.251Z,98758.03
2022-11-14T21:06:03.090Z,98738.63
2022-11-14T21:08:30.569Z,98741.00
2022-11-14T21:11:05.465Z,98729.53
2022-11-14T21:13:53.923Z,98727.56
2022-11-14T21:16:21.003Z,98723.63
2022-11-14T21:18:48.357Z,98719.25
2022-11-14T21:21:18.485Z,98708.56
2022-11-14T21:23:46.823Z,98722.44
2022-11-14T21:26:25.998Z,98709.78
2022-11-14T21:28:55.149Z,98683.66
2022-11-14T21:31:33.530Z,98693.97
2022-11-14T21:34:02.325Z,98687.25
2022-11-14T21:36:46.676Z,98678.94
2022-11-14T21:39:15.909Z,98675.00
2022-11-14T21:41:44.525Z,98658.00
2022-11-14T21:44:15.516Z,98650.91
2022-11-14T21:46:43.324Z,98648.50
2022-11-14T21:49:10.338Z,98634.28
2022-11-14T21:51:37.199Z,98652.84
2022-11-14T21:54:05.249Z,98639.44
2022-11-14T21:56:34.092Z,98635.06
2022-11-14T21:59:16.023Z,98638.63
2022-11-14T22:02:03.425Z,98632.72
2022-11-14T22:04:31.490Z,98624.81
2022-11-14T22:06:59.481Z,98594.38
2022-11-14T22:09:28.091Z,98589.22
2022-11-14T22:11:55.466Z,98581.31
2022-11-14T22:14:23.009Z,98584.06
2022-11-14T22:16:49.748Z,98587.25
2022-11-14T22:19:16.514Z,98552.03
2022-11-14T22:21:43.239Z,98539.81
2022-11-14T22:24:09.948Z,98540.59
2022-11-14T22:26:40.009Z,98518.84
2022-11-14T22:29:07.755Z,98507.38
2022-11-14T22:31:34.922Z,98514.09
2022-11-14T22:34:01.669Z,98507.78
2022-11-14T22:36:28.666Z,98494.72
2022-11-14T22:38:56.999Z,98501.84
2022-11-14T22:41:31.944Z,98504.22
2022-11-14T22:43:59.413Z,98484.44
2022-11-14T22:46:27.487Z,98454.00
2022-11-14T22:48:55.526Z,98459.53
2022-11-14T22:51:28.364Z,98449.25
2022-11-14T22:53:58.506Z,98446.09
2022-11-14T22:56:28.417Z,98457.53
2022-11-14T22:58:56.587Z,98448.06
2022-11-14T23:01:31.488Z,98434.59
2022-11-14T23:04:04.967Z,98432.63
2022-11-14T23:06:33.954Z,98438.16
2022-11-14T23:09:02.437Z,98441.72
2022-11-14T23:11:31.729Z,98434.97
2022-11-14T23:14:00.301Z,98408.88
2022-11-14T23:16:32.628Z,98434.19
2022-11-14T23:19:02.015Z,98431.41
2022-11-14T23:21:35.980Z,98421.13
2022-11-14T23:24:06.960Z,98410.84
2022-11-14T23:26:33.976Z,98406.09
2022-11-14T23:29:00.985Z,98408.47
2022-11-14T23:31:27.864Z,98399.75
2022-11-14T23:33:55.936Z,98387.09
2022-11-14T23:36:22.903Z,98413.19
2022-11-14T23:38:53.135Z,98392.59
2022-11-14T23:41:22.922Z,98398.56
2022-11-14T23:43:50.385Z,98391.03
2022-11-14T23:46:17.102Z,98379.97
2022-11-14T23:48:44.871Z,98364.91
2022-11-14T23:51:13.729Z,98369.69
2022-11-14T23:53:41.120Z,98359.38
2022-11-14T23:56:12.804Z,98368.47
2022-11-14T23:58:39.701Z,98362.56
